Derby, United Kingdom
Current Conditions -  °F | °C
As of 12:50 AM on Saturday 01 Nov 2014 (Local Time) from EGNX Reporting Station
Few Clouds Few Clouds  
Wind Chill: 61°   Ceiling: Unl
Heat Index: 61°   Visibility: 6mi
Dew Point: 57°   Wind: 18mph
Humidity: 88%   Direction: 190°S
Pressure: 29.83"   Gusts: NA
Location:  52.92°N, 1.48°W
Report Text: EGNX 010050Z 19016KT 9999 FEW023 16/14 Q1010
Loading
Personal Weather Stations






























Interactive Weather Map
Tropical Storm Tracking
New forecast layout! Learn more

10-Day Weather Forecast

Advertisements
Track Severe Weather on mobile